createdAt,value
2022-12-05T10:16:45.795Z,26.10
2022-12-05T10:24:00.277Z,29.50
2022-12-05T10:30:58.707Z,29.00
2022-12-05T11:04:49.285Z,32.90
2022-12-05T11:11:20.912Z,33.20
2022-12-05T11:17:58.914Z,30.20
2022-12-05T11:24:22.841Z,31.60
2022-12-05T11:37:35.139Z,34.00
2022-12-05T11:50:53.187Z,31.80
2022-12-05T11:57:52.985Z,31.20
2022-12-05T12:11:30.018Z,33.30
2022-12-05T12:18:24.524Z,34.10
2022-12-05T12:25:19.145Z,35.60
2022-12-05T12:54:21.789Z,40.70
2022-12-05T13:03:53.687Z,40.30
2022-12-05T13:08:52.491Z,54.00
2022-12-05T13:15:34.802Z,54.00
2022-12-05T13:22:17.117Z,50.50
2022-12-05T13:29:02.304Z,48.50
2022-12-05T13:35:46.388Z,52.60
2022-12-05T13:42:36.711Z,60.10
2022-12-05T13:49:26.257Z,44.30
2022-12-05T14:50:36.222Z,57.40
2022-12-05T14:57:30.585Z,55.00
2022-12-05T15:16:58.754Z,53.80
2022-12-05T15:23:13.545Z,51.50
2022-12-05T15:29:27.357Z,55.00
2022-12-05T15:35:57.328Z,52.60
2022-12-05T15:42:29.201Z,55.00
2022-12-05T15:49:11.756Z,57.80
2022-12-05T15:55:36.373Z,59.00
2022-12-05T16:02:33.670Z,66.80
2022-12-05T16:09:35.083Z,71.90
2022-12-05T16:48:43.688Z,67.80
2022-12-05T16:55:08.701Z,77.10
2022-12-05T17:14:38.236Z,91.20
2022-12-05T18:08:31.259Z,81.70
2022-12-05T18:27:42.484Z,94.80
2022-12-05T18:34:25.554Z,105.90
2022-12-05T18:41:07.220Z,95.10
2022-12-05T18:47:48.541Z,91.50
2022-12-05T18:54:32.298Z,92.10
2022-12-05T19:01:14.156Z,101.60
2022-12-05T19:07:56.566Z,97.60
2022-12-05T19:14:38.691Z,63.80
2022-12-05T19:21:20.993Z,88.70
2022-12-05T19:28:03.339Z,94.20
2022-12-05T19:34:45.363Z,81.00
2022-12-05T19:41:27.255Z,45.10
2022-12-05T19:48:09.523Z,39.30
2022-12-05T19:54:51.138Z,50.60
2022-12-05T20:01:33.322Z,67.90
2022-12-05T20:08:16.365Z,76.50
2022-12-05T20:14:58.506Z,70.70
2022-12-05T20:21:40.861Z,71.60
2022-12-05T20:28:26.130Z,68.00
2022-12-05T20:35:18.495Z,64.30
2022-12-05T20:42:19.318Z,76.80
2022-12-05T20:49:06.370Z,67.20
2022-12-05T20:55:50.714Z,51.00
2022-12-05T21:36:21.776Z,58.70
2022-12-05T21:43:06.527Z,59.90
2022-12-05T21:49:58.825Z,53.30
2022-12-05T21:56:49.961Z,51.20
2022-12-05T22:03:36.256Z,50.00
2022-12-05T22:10:21.137Z,48.10
2022-12-05T22:17:04.514Z,53.00
2022-12-05T22:24:16.411Z,56.60
2022-12-05T22:31:10.510Z,60.80
2022-12-05T22:38:00.587Z,53.30
2022-12-05T22:44:44.492Z,56.50
2022-12-05T22:51:28.853Z,58.70
2022-12-05T22:58:10.284Z,56.90
2022-12-05T23:04:54.882Z,53.70
2022-12-05T23:11:36.781Z,54.20
2022-12-05T23:18:26.089Z,53.80
2022-12-05T23:32:52.585Z,74.60
2022-12-05T23:39:35.879Z,71.90
2022-12-05T23:46:17.996Z,71.00
2022-12-05T23:59:44.155Z,59.70
